sensor_id;sensor_type;location;lat;lon;timestamp;temperature;humidity
9723;DHT22;4900;49.306;8.500;2023-04-03T00:01:24;5.78;65.71
9723;DHT22;4900;49.306;8.500;2023-04-03T00:03:49;5.71;65.85
9723;DHT22;4900;49.306;8.500;2023-04-03T00:06:15;5.67;66.06
9723;DHT22;4900;49.306;8.500;2023-04-03T00:08:41;5.59;66.14
9723;DHT22;4900;49.306;8.500;2023-04-03T00:11:07;5.53;66.44
9723;DHT22;4900;49.306;8.500;2023-04-03T00:13:33;5.44;66.70
9723;DHT22;4900;49.306;8.500;2023-04-03T00:15:59;5.39;66.92
9723;DHT22;4900;49.306;8.500;2023-04-03T00:18:24;5.34;67.01
9723;DHT22;4900;49.306;8.500;2023-04-03T00:20:50;5.32;67.03
9723;DHT22;4900;49.306;8.500;2023-04-03T00:23:16;5.23;67.10
9723;DHT22;4900;49.306;8.500;2023-04-03T00:25:42;5.15;67.06
9723;DHT22;4900;49.306;8.500;2023-04-03T00:28:08;5.09;67.21
9723;DHT22;4900;49.306;8.500;2023-04-03T00:30:33;5.09;67.25
9723;DHT22;4900;49.306;8.500;2023-04-03T00:32:59;5.09;67.49
9723;DHT22;4900;49.306;8.500;2023-04-03T00:35:26;5.02;67.47
9723;DHT22;4900;49.306;8.500;2023-04-03T00:37:52;5.02;67.69
9723;DHT22;4900;49.306;8.500;2023-04-03T00:40:19;4.92;67.88
9723;DHT22;4900;49.306;8.500;2023-04-03T00:42:47;4.94;68.01
9723;DHT22;4900;49.306;8.500;2023-04-03T00:47:39;4.94;67.99
9723;DHT22;4900;49.306;8.500;2023-04-03T00:50:06;4.88;67.96
9723;DHT22;4900;49.306;8.500;2023-04-03T00:52:32;4.89;67.92
9723;DHT22;4900;49.306;8.500;2023-04-03T00:55:02;4.85;67.99
9723;DHT22;4900;49.306;8.500;2023-04-03T00:57:30;4.80;67.82
9723;DHT22;4900;49.306;8.500;2023-04-03T01:00:00;4.77;67.94
9723;DHT22;4900;49.306;8.500;2023-04-03T01:02:26;4.73;68.27
9723;DHT22;4900;49.306;8.500;2023-04-03T01:04:52;4.67;68.41
9723;DHT22;4900;49.306;8.500;2023-04-03T01:07:29;4.64;68.62
9723;DHT22;4900;49.306;8.500;2023-04-03T01:10:00;4.61;68.64
9723;DHT22;4900;49.306;8.500;2023-04-03T01:12:35;4.57;68.73
9723;DHT22;4900;49.306;8.500;2023-04-03T01:15:26;4.56;68.84
9723;DHT22;4900;49.306;8.500;2023-04-03T01:17:57;4.48;68.61
9723;DHT22;4900;49.306;8.500;2023-04-03T01:25:46;4.43;68.89
9723;DHT22;4900;49.306;8.500;2023-04-03T01:28:18;4.39;68.72
9723;DHT22;4900;49.306;8.500;2023-04-03T01:31:05;4.40;68.74
9723;DHT22;4900;49.306;8.500;2023-04-03T01:33:33;4.35;68.61
9723;DHT22;4900;49.306;8.500;2023-04-03T01:35:59;4.33;68.74
9723;DHT22;4900;49.306;8.500;2023-04-03T01:38:24;4.29;69.05
9723;DHT22;4900;49.306;8.500;2023-04-03T01:40:50;4.30;69.25
9723;DHT22;4900;49.306;8.500;2023-04-03T01:43:16;4.29;69.34
9723;DHT22;4900;49.306;8.500;2023-04-03T01:45:41;4.29;69.51
9723;DHT22;4900;49.306;8.500;2023-04-03T01:48:07;4.28;69.57
9723;DHT22;4900;49.306;8.500;2023-04-03T01:50:33;4.29;69.62
9723;DHT22;4900;49.306;8.500;2023-04-03T01:52:59;4.32;69.36
9723;DHT22;4900;49.306;8.500;2023-04-03T01:55:24;4.29;69.28
9723;DHT22;4900;49.306;8.500;2023-04-03T01:57:50;4.30;69.12
9723;DHT22;4900;49.306;8.500;2023-04-03T02:00:16;4.24;69.20
9723;DHT22;4900;49.306;8.500;2023-04-03T02:02:41;4.22;69.18
9723;DHT22;4900;49.306;8.500;2023-04-03T02:05:07;4.19;69.14
9723;DHT22;4900;49.306;8.500;2023-04-03T02:07:33;4.12;69.15
9723;DHT22;4900;49.306;8.500;2023-04-03T02:09:58;4.09;69.34
9723;DHT22;4900;49.306;8.500;2023-04-03T02:12:23;4.08;69.22
9723;DHT22;4900;49.306;8.500;2023-04-03T02:14:49;4.07;69.35
9723;DHT22;4900;49.306;8.500;2023-04-03T02:17:15;4.04;69.39
9723;DHT22;4900;49.306;8.500;2023-04-03T02:19:41;4.05;69.54
9723;DHT22;4900;49.306;8.500;2023-04-03T02:22:06;4.02;69.72
9723;DHT22;4900;49.306;8.500;2023-04-03T02:24:32;4.01;69.91
9723;DHT22;4900;49.306;8.500;2023-04-03T02:26:57;4.04;69.91
9723;DHT22;4900;49.306;8.500;2023-04-03T02:29:23;4.08;69.85
9723;DHT22;4900;49.306;8.500;2023-04-03T02:31:49;4.09;69.85
9723;DHT22;4900;49.306;8.500;2023-04-03T02:34:15;4.09;69.91
9723;DHT22;4900;49.306;8.500;2023-04-03T02:36:41;4.11;70.03
9723;DHT22;4900;49.306;8.500;2023-04-03T02:39:07;4.14;70.18
9723;DHT22;4900;49.306;8.500;2023-04-03T02:41:32;4.16;70.14
9723;DHT22;4900;49.306;8.500;2023-04-03T02:44:02;4.21;70.06
9723;DHT22;4900;49.306;8.500;2023-04-03T02:46:28;4.26;70.00
9723;DHT22;4900;49.306;8.500;2023-04-03T02:48:53;4.28;69.91
9723;DHT22;4900;49.306;8.500;2023-04-03T02:51:19;4.29;69.87
9723;DHT22;4900;49.306;8.500;2023-04-03T02:53:44;4.32;69.85
9723;DHT22;4900;49.306;8.500;2023-04-03T02:56:10;4.33;69.85
9723;DHT22;4900;49.306;8.500;2023-04-03T02:58:36;4.32;69.95
9723;DHT22;4900;49.306;8.500;2023-04-03T03:01:01;4.36;69.90
9723;DHT22;4900;49.306;8.500;2023-04-03T03:03:27;4.36;70.00
9723;DHT22;4900;49.306;8.500;2023-04-03T03:06:08;4.35;70.15
9723;DHT22;4900;49.306;8.500;2023-04-03T03:08:34;4.35;70.14
9723;DHT22;4900;49.306;8.500;2023-04-03T03:11:01;4.36;70.17
9723;DHT22;4900;49.306;8.500;2023-04-03T03:13:26;4.36;70.25
9723;DHT22;4900;49.306;8.500;2023-04-03T03:15:52;4.39;70.23
9723;DHT22;4900;49.306;8.500;2023-04-03T03:18:17;4.43;70.10
9723;DHT22;4900;49.306;8.500;2023-04-03T03:20:43;4.42;70.12
9723;DHT22;4900;49.306;8.500;2023-04-03T03:23:09;4.43;70.19
9723;DHT22;4900;49.306;8.500;2023-04-03T03:25:38;4.40;70.17
9723;DHT22;4900;49.306;8.500;2023-04-03T03:28:04;4.42;70.14
9723;DHT22;4900;49.306;8.500;2023-04-03T03:30:29;4.45;69.98
9723;DHT22;4900;49.306;8.500;2023-04-03T03:32:55;4.48;69.88
9723;DHT22;4900;49.306;8.500;2023-04-03T03:35:20;4.45;69.85
9723;DHT22;4900;49.306;8.500;2023-04-03T03:37:46;4.40;69.97
9723;DHT22;4900;49.306;8.500;2023-04-03T03:40:12;4.40;69.93
9723;DHT22;4900;49.306;8.500;2023-04-03T03:42:38;4.35;69.83
9723;DHT22;4900;49.306;8.500;2023-04-03T03:45:04;4.32;69.90
9723;DHT22;4900;49.306;8.500;2023-04-03T03:47:30;4.22;70.09
9723;DHT22;4900;49.306;8.500;2023-04-03T03:49:55;4.19;70.00
9723;DHT22;4900;49.306;8.500;2023-04-03T03:52:21;4.12;69.73
9723;DHT22;4900;49.306;8.500;2023-04-03T03:54:46;4.08;69.71
9723;DHT22;4900;49.306;8.500;2023-04-03T03:57:11;4.01;69.80
9723;DHT22;4900;49.306;8.500;2023-04-03T03:59:37;3.94;69.74
9723;DHT22;4900;49.306;8.500;2023-04-03T04:02:03;3.90;69.98
9723;DHT22;4900;49.306;8.500;2023-04-03T04:04:28;3.86;70.18
9723;DHT22;4900;49.306;8.500;2023-04-03T04:06:54;3.81;70.31
9723;DHT22;4900;49.306;8.500;2023-04-03T04:09:19;3.77;70.47
9723;DHT22;4900;49.306;8.500;2023-04-03T04:11:44;3.73;70.54
9723;DHT22;4900;49.306;8.500;2023-04-03T04:14:10;3.71;70.66
9723;DHT22;4900;49.306;8.500;2023-04-03T04:16:37;3.64;70.68
9723;DHT22;4900;49.306;8.500;2023-04-03T04:19:03;3.59;70.76
9723;DHT22;4900;49.306;8.500;2023-04-03T04:21:28;3.56;70.83
9723;DHT22;4900;49.306;8.500;2023-04-03T04:23:54;3.56;70.95
9723;DHT22;4900;49.306;8.500;2023-04-03T04:26:19;3.49;71.10
9723;DHT22;4900;49.306;8.500;2023-04-03T04:28:46;3.48;71.19
9723;DHT22;4900;49.306;8.500;2023-04-03T04:31:12;3.45;71.21
9723;DHT22;4900;49.306;8.500;2023-04-03T04:33:37;3.43;71.18
9723;DHT22;4900;49.306;8.500;2023-04-03T04:36:02;3.41;71.23
9723;DHT22;4900;49.306;8.500;2023-04-03T04:38:28;3.41;71.10
9723;DHT22;4900;49.306;8.500;2023-04-03T04:40:53;3.36;71.11
9723;DHT22;4900;49.306;8.500;2023-04-03T04:43:19;3.29;71.06
9723;DHT22;4900;49.306;8.500;2023-04-03T04:45:44;3.28;71.13
9723;DHT22;4900;49.306;8.500;2023-04-03T04:48:10;3.28;71.06
9723;DHT22;4900;49.306;8.500;2023-04-03T04:50:35;3.25;71.07
9723;DHT22;4900;49.306;8.500;2023-04-03T04:53:01;3.24;71.12
9723;DHT22;4900;49.306;8.500;2023-04-03T04:55:26;3.19;71.06
9723;DHT22;4900;49.306;8.500;2023-04-03T04:57:52;3.19;71.21
9723;DHT22;4900;49.306;8.500;2023-04-03T05:00:18;3.16;71.17
9723;DHT22;4900;49.306;8.500;2023-04-03T05:02:43;3.11;71.25
9723;DHT22;4900;49.306;8.500;2023-04-03T05:05:09;3.12;71.28
9723;DHT22;4900;49.306;8.500;2023-04-03T05:07:34;3.11;71.38
9723;DHT22;4900;49.306;8.500;2023-04-03T05:10:01;3.09;71.49
9723;DHT22;4900;49.306;8.500;2023-04-03T05:12:27;3.11;71.76
9723;DHT22;4900;49.306;8.500;2023-04-03T05:14:53;3.18;72.07
9723;DHT22;4900;49.306;8.500;2023-04-03T05:17:18;3.24;72.29
9723;DHT22;4900;49.306;8.500;2023-04-03T05:19:44;3.29;72.64
9723;DHT22;4900;49.306;8.500;2023-04-03T05:22:10;3.32;72.68
9723;DHT22;4900;49.306;8.500;2023-04-03T05:24:35;3.39;72.63
9723;DHT22;4900;49.306;8.500;2023-04-03T05:27:01;3.42;72.64
9723;DHT22;4900;49.306;8.500;2023-04-03T05:29:26;3.46;72.48
9723;DHT22;4900;49.306;8.500;2023-04-03T05:31:52;3.53;72.44
9723;DHT22;4900;49.306;8.500;2023-04-03T05:34:17;3.55;72.43
9723;DHT22;4900;49.306;8.500;2023-04-03T05:36:43;3.56;72.42
9723;DHT22;4900;49.306;8.500;2023-04-03T05:39:09;3.63;72.44
9723;DHT22;4900;49.306;8.500;2023-04-03T05:41:34;3.69;72.47
9723;DHT22;4900;49.306;8.500;2023-04-03T05:44:00;3.73;72.48
9723;DHT22;4900;49.306;8.500;2023-04-03T05:46:25;3.73;72.52
9723;DHT22;4900;49.306;8.500;2023-04-03T05:48:51;3.79;72.48
9723;DHT22;4900;49.306;8.500;2023-04-03T05:51:31;3.83;72.42
9723;DHT22;4900;49.306;8.500;2023-04-03T05:54:09;3.87;72.29
9723;DHT22;4900;49.306;8.500;2023-04-03T05:56:37;3.90;72.27
9723;DHT22;4900;49.306;8.500;2023-04-03T05:59:03;3.95;72.25
9723;DHT22;4900;49.306;8.500;2023-04-03T06:01:29;3.98;72.18
9723;DHT22;4900;49.306;8.500;2023-04-03T06:03:55;4.08;72.21
9723;DHT22;4900;49.306;8.500;2023-04-03T06:06:21;4.11;72.14
9723;DHT22;4900;49.306;8.500;2023-04-03T06:08:47;4.21;72.05
9723;DHT22;4900;49.306;8.500;2023-04-03T06:11:13;4.29;71.90
9723;DHT22;4900;49.306;8.500;2023-04-03T06:13:38;4.32;71.90
9723;DHT22;4900;49.306;8.500;2023-04-03T06:16:05;4.36;71.83
9723;DHT22;4900;49.306;8.500;2023-04-03T06:18:30;4.43;71.70
9723;DHT22;4900;49.306;8.500;2023-04-03T06:20:56;4.48;71.64
9723;DHT22;4900;49.306;8.500;2023-04-03T06:23:23;4.50;71.48
9723;DHT22;4900;49.306;8.500;2023-04-03T06:25:48;4.50;71.44
9723;DHT22;4900;49.306;8.500;2023-04-03T06:28:14;4.54;71.40
9723;DHT22;4900;49.306;8.500;2023-04-03T06:30:39;4.57;71.37
9723;DHT22;4900;49.306;8.500;2023-04-03T06:33:05;4.61;71.33
9723;DHT22;4900;49.306;8.500;2023-04-03T06:35:31;4.66;71.34
9723;DHT22;4900;49.306;8.500;2023-04-03T06:37:57;4.73;71.43
9723;DHT22;4900;49.306;8.500;2023-04-03T06:40:24;4.77;71.44
9723;DHT22;4900;49.306;8.500;2023-04-03T06:42:50;4.83;71.46
9723;DHT22;4900;49.306;8.500;2023-04-03T06:45:16;4.87;71.35
9723;DHT22;4900;49.306;8.500;2023-04-03T06:47:42;4.94;71.21
9723;DHT22;4900;49.306;8.500;2023-04-03T06:50:09;5.06;71.28
9723;DHT22;4900;49.306;8.500;2023-04-03T06:52:36;5.16;71.04
9723;DHT22;4900;49.306;8.500;2023-04-03T06:55:02;5.30;70.73
9723;DHT22;4900;49.306;8.500;2023-04-03T06:57:27;5.48;70.40
9723;DHT22;4900;49.306;8.500;2023-04-03T06:59:53;5.85;69.71
9723;DHT22;4900;49.306;8.500;2023-04-03T07:02:19;6.34;68.78
9723;DHT22;4900;49.306;8.500;2023-04-03T07:04:45;6.85;67.44
9723;DHT22;4900;49.306;8.500;2023-04-03T07:07:11;7.40;66.18
9723;DHT22;4900;49.306;8.500;2023-04-03T07:09:37;7.78;64.67
9723;DHT22;4900;49.306;8.500;2023-04-03T07:12:02;8.28;63.51
9723;DHT22;4900;49.306;8.500;2023-04-03T07:14:28;8.65;62.20
9723;DHT22;4900;49.306;8.500;2023-04-03T07:16:53;9.13;61.52
9723;DHT22;4900;49.306;8.500;2023-04-03T07:19:19;9.59;60.27
9723;DHT22;4900;49.306;8.500;2023-04-03T07:21:44;9.97;59.10
9723;DHT22;4900;49.306;8.500;2023-04-03T07:24:10;10.32;58.16
9723;DHT22;4900;49.306;8.500;2023-04-03T07:26:38;10.41;57.81
9723;DHT22;4900;49.306;8.500;2023-04-03T07:29:05;10.72;57.09
9723;DHT22;4900;49.306;8.500;2023-04-03T07:31:30;10.91;56.80
9723;DHT22;4900;49.306;8.500;2023-04-03T07:33:56;11.32;56.00
9723;DHT22;4900;49.306;8.500;2023-04-03T07:36:22;11.56;54.52
9723;DHT22;4900;49.306;8.500;2023-04-03T07:38:48;11.81;54.17
9723;DHT22;4900;49.306;8.500;2023-04-03T07:41:16;11.90;53.29
9723;DHT22;4900;49.306;8.500;2023-04-03T07:43:44;12.07;52.44
9723;DHT22;4900;49.306;8.500;2023-04-03T07:46:10;12.36;51.60
9723;DHT22;4900;49.306;8.500;2023-04-03T07:48:35;12.69;50.97
9723;DHT22;4900;49.306;8.500;2023-04-03T07:51:02;12.97;50.38
9723;DHT22;4900;49.306;8.500;2023-04-03T07:53:28;13.10;49.92
9723;DHT22;4900;49.306;8.500;2023-04-03T07:55:54;13.22;48.68
9723;DHT22;4900;49.306;8.500;2023-04-03T07:58:21;13.42;48.32
9723;DHT22;4900;49.306;8.500;2023-04-03T08:00:47;13.66;47.70
9723;DHT22;4900;49.306;8.500;2023-04-03T08:03:13;13.95;47.21
9723;DHT22;4900;49.306;8.500;2023-04-03T08:05:44;14.21;46.55
9723;DHT22;4900;49.306;8.500;2023-04-03T08:08:12;14.43;46.26
9723;DHT22;4900;49.306;8.500;2023-04-03T08:10:38;14.55;45.89
9723;DHT22;4900;49.306;8.500;2023-04-03T08:13:04;14.48;44.62
9723;DHT22;4900;49.306;8.500;2023-04-03T08:15:30;14.64;44.60
9723;DHT22;4900;49.306;8.500;2023-04-03T08:17:57;14.61;44.18
9723;DHT22;4900;49.306;8.500;2023-04-03T08:20:22;14.84;44.23
9723;DHT22;4900;49.306;8.500;2023-04-03T08:22:48;15.08;43.99
9723;DHT22;4900;49.306;8.500;2023-04-03T08:25:13;15.28;44.00
9723;DHT22;4900;49.306;8.500;2023-04-03T08:27:39;15.51;43.28
9723;DHT22;4900;49.306;8.500;2023-04-03T08:30:05;15.15;42.05
9723;DHT22;4900;49.306;8.500;2023-04-03T08:32:33;14.77;42.74
9723;DHT22;4900;49.306;8.500;2023-04-03T08:34:58;15.04;42.75
9723;DHT22;4900;49.306;8.500;2023-04-03T08:37:24;15.38;42.56
9723;DHT22;4900;49.306;8.500;2023-04-03T08:39:49;15.29;41.95
9723;DHT22;4900;49.306;8.500;2023-04-03T08:43:04;15.40;41.07
9723;DHT22;4900;49.306;8.500;2023-04-03T08:45:14;14.34;42.34
9723;DHT22;4900;49.306;8.500;2023-04-03T08:47:52;14.59;43.11
9723;DHT22;4900;49.306;8.500;2023-04-03T08:50:26;14.30;43.29
9723;DHT22;4900;49.306;8.500;2023-04-03T08:52:56;14.87;43.25
9723;DHT22;4900;49.306;8.500;2023-04-03T08:55:24;15.35;41.79
9723;DHT22;4900;49.306;8.500;2023-04-03T08:58:02;15.73;41.87
9723;DHT22;4900;49.306;8.500;2023-04-03T09:00:34;15.89;41.04
9723;DHT22;4900;49.306;8.500;2023-04-03T09:03:02;16.58;40.59
9723;DHT22;4900;49.306;8.500;2023-04-03T09:08:21;16.29;39.68
9723;DHT22;4900;49.306;8.500;2023-04-03T09:10:49;15.96;40.58
9723;DHT22;4900;49.306;8.500;2023-04-03T09:16:15;16.88;39.12
9723;DHT22;4900;49.306;8.500;2023-04-03T09:18:49;17.49;37.96
9723;DHT22;4900;49.306;8.500;2023-04-03T09:21:25;18.46;38.06
9723;DHT22;4900;49.306;8.500;2023-04-03T09:23:56;18.63;36.67
9723;DHT22;4900;49.306;8.500;2023-04-03T09:29:07;19.68;35.67
9723;DHT22;4900;49.306;8.500;2023-04-03T09:31:39;20.40;34.38
9723;DHT22;4900;49.306;8.500;2023-04-03T09:34:17;21.10;33.31
9723;DHT22;4900;49.306;8.500;2023-04-03T09:36:46;21.46;34.03
9723;DHT22;4900;49.306;8.500;2023-04-03T09:39:24;21.66;33.81
9723;DHT22;4900;49.306;8.500;2023-04-03T09:44:36;22.02;31.35
9723;DHT22;4900;49.306;8.500;2023-04-03T09:47:35;22.75;31.01
9723;DHT22;4900;49.306;8.500;2023-04-03T09:52:50;22.09;31.60
9723;DHT22;4900;49.306;8.500;2023-04-03T09:55:19;22.05;32.61
9723;DHT22;4900;49.306;8.500;2023-04-03T09:57:53;22.13;31.39
9723;DHT22;4900;49.306;8.500;2023-04-03T10:00:23;22.53;30.66
9723;DHT22;4900;49.306;8.500;2023-04-03T10:02:54;22.73;31.21
9723;DHT22;4900;49.306;8.500;2023-04-03T10:05:40;22.82;30.81
9723;DHT22;4900;49.306;8.500;2023-04-03T10:10:38;23.47;28.99
9723;DHT22;4900;49.306;8.500;2023-04-03T10:13:12;24.12;28.73
9723;DHT22;4900;49.306;8.500;2023-04-03T10:16:09;24.75;28.50
9723;DHT22;4900;49.306;8.500;2023-04-03T10:18:44;24.80;28.15
9723;DHT22;4900;49.306;8.500;2023-04-03T10:29:31;23.45;27.81
9723;DHT22;4900;49.306;8.500;2023-04-03T10:35:10;21.88;29.18
9723;DHT22;4900;49.306;8.500;2023-04-03T10:38:11;21.33;29.66
9723;DHT22;4900;49.306;8.500;2023-04-03T10:41:04;20.83;29.08
9723;DHT22;4900;49.306;8.500;2023-04-03T10:46:27;19.83;31.26
9723;DHT22;4900;49.306;8.500;2023-04-03T10:51:43;20.29;30.92
9723;DHT22;4900;49.306;8.500;2023-04-03T10:56:50;20.81;30.73
9723;DHT22;4900;49.306;8.500;2023-04-03T10:59:28;20.43;30.95
9723;DHT22;4900;49.306;8.500;2023-04-03T11:02:10;19.93;30.40
9723;DHT22;4900;49.306;8.500;2023-04-03T11:04:39;19.87;30.74
9723;DHT22;4900;49.306;8.500;2023-04-03T11:07:17;19.78;31.10
9723;DHT22;4900;49.306;8.500;2023-04-03T11:09:46;19.37;30.63
9723;DHT22;4900;49.306;8.500;2023-04-03T11:12:44;19.55;31.31
9723;DHT22;4900;49.306;8.500;2023-04-03T11:15:16;20.40;31.68
9723;DHT22;4900;49.306;8.500;2023-04-03T11:17:55;20.93;31.05
9723;DHT22;4900;49.306;8.500;2023-04-03T11:20:30;20.89;30.22
9723;DHT22;4900;49.306;8.500;2023-04-03T11:23:09;20.79;29.87
9723;DHT22;4900;49.306;8.500;2023-04-03T11:25:40;20.98;29.71
9723;DHT22;4900;49.306;8.500;2023-04-03T11:28:17;21.02;30.03
9723;DHT22;4900;49.306;8.500;2023-04-03T11:30:58;20.98;29.67
9723;DHT22;4900;49.306;8.500;2023-04-03T11:33:51;20.88;30.85
9723;DHT22;4900;49.306;8.500;2023-04-03T11:36:27;20.79;30.50
9723;DHT22;4900;49.306;8.500;2023-04-03T11:38:55;20.79;31.01
9723;DHT22;4900;49.306;8.500;2023-04-03T11:41:30;20.59;30.42
9723;DHT22;4900;49.306;8.500;2023-04-03T11:43:59;20.37;30.39
9723;DHT22;4900;49.306;8.500;2023-04-03T11:46:49;19.95;30.90
9723;DHT22;4900;49.306;8.500;2023-04-03T11:58:13;20.21;30.08
9723;DHT22;4900;49.306;8.500;2023-04-03T12:05:53;19.64;32.53
9723;DHT22;4900;49.306;8.500;2023-04-03T12:13:41;20.16;31.94
9723;DHT22;4900;49.306;8.500;2023-04-03T12:24:25;19.75;32.61
9723;DHT22;4900;49.306;8.500;2023-04-03T12:42:41;19.14;32.04
9723;DHT22;4900;49.306;8.500;2023-04-03T12:45:21;19.24;32.53
9723;DHT22;4900;49.306;8.500;2023-04-03T12:47:50;19.06;32.44
9723;DHT22;4900;49.306;8.500;2023-04-03T12:50:23;18.95;32.46
9723;DHT22;4900;49.306;8.500;2023-04-03T12:52:56;19.00;32.94
9723;DHT22;4900;49.306;8.500;2023-04-03T12:55:23;18.75;33.67
9723;DHT22;4900;49.306;8.500;2023-04-03T12:57:48;18.92;33.17
9723;DHT22;4900;49.306;8.500;2023-04-03T13:02:46;18.40;33.37
9723;DHT22;4900;49.306;8.500;2023-04-03T13:05:18;18.31;32.89
9723;DHT22;4900;49.306;8.500;2023-04-03T13:07:49;17.82;32.33
9723;DHT22;4900;49.306;8.500;2023-04-03T13:10:17;17.55;32.83
9723;DHT22;4900;49.306;8.500;2023-04-03T13:15:26;17.86;33.37
9723;DHT22;4900;49.306;8.500;2023-04-03T13:17:53;18.01;33.67
9723;DHT22;4900;49.306;8.500;2023-04-03T13:20:23;18.09;33.56
9723;DHT22;4900;49.306;8.500;2023-04-03T13:22:56;18.08;33.04
9723;DHT22;4900;49.306;8.500;2023-04-03T13:25:24;18.53;33.02
9723;DHT22;4900;49.306;8.500;2023-04-03T13:27:51;19.12;32.84
9723;DHT22;4900;49.306;8.500;2023-04-03T13:30:25;19.51;33.05
9723;DHT22;4900;49.306;8.500;2023-04-03T13:32:51;19.83;32.39
9723;DHT22;4900;49.306;8.500;2023-04-03T13:37:57;20.03;31.44
9723;DHT22;4900;49.306;8.500;2023-04-03T13:40:22;20.01;31.15
9723;DHT22;4900;49.306;8.500;2023-04-03T13:43:02;19.93;30.94
9723;DHT22;4900;49.306;8.500;2023-04-03T13:45:29;19.27;30.30
9723;DHT22;4900;49.306;8.500;2023-04-03T13:48:14;19.13;31.61
9723;DHT22;4900;49.306;8.500;2023-04-03T13:50:59;18.99;32.47
9723;DHT22;4900;49.306;8.500;2023-04-03T13:53:27;18.63;32.24
9723;DHT22;4900;49.306;8.500;2023-04-03T13:56:08;18.43;32.74
9723;DHT22;4900;49.306;8.500;2023-04-03T13:58:34;18.27;32.43
9723;DHT22;4900;49.306;8.500;2023-04-03T14:02:13;17.95;33.29
9723;DHT22;4900;49.306;8.500;2023-04-03T14:04:23;18.12;33.67
9723;DHT22;4900;49.306;8.500;2023-04-03T14:06:49;18.14;33.22
9723;DHT22;4900;49.306;8.500;2023-04-03T14:09:16;18.58;33.69
9723;DHT22;4900;49.306;8.500;2023-04-03T14:11:42;19.24;33.43
9723;DHT22;4900;49.306;8.500;2023-04-03T14:14:23;20.10;33.52
9723;DHT22;4900;49.306;8.500;2023-04-03T14:16:55;20.96;33.28
9723;DHT22;4900;49.306;8.500;2023-04-03T14:19:27;21.64;31.42
9723;DHT22;4900;49.306;8.500;2023-04-03T14:21:54;22.24;30.68
9723;DHT22;4900;49.306;8.500;2023-04-03T14:24:20;23.07;30.62
9723;DHT22;4900;49.306;8.500;2023-04-03T14:26:48;23.51;29.64
9723;DHT22;4900;49.306;8.500;2023-04-03T14:29:14;23.52;27.76
9723;DHT22;4900;49.306;8.500;2023-04-03T14:31:42;22.93;27.51
9723;DHT22;4900;49.306;8.500;2023-04-03T14:34:12;22.51;27.69
9723;DHT22;4900;49.306;8.500;2023-04-03T14:36:39;21.92;28.57
9723;DHT22;4900;49.306;8.500;2023-04-03T14:39:07;21.57;28.37
9723;DHT22;4900;49.306;8.500;2023-04-03T14:41:34;20.59;29.22
9723;DHT22;4900;49.306;8.500;2023-04-03T14:44:00;19.96;29.52
9723;DHT22;4900;49.306;8.500;2023-04-03T14:46:30;19.87;29.37
9723;DHT22;4900;49.306;8.500;2023-04-03T14:48:56;20.08;30.56
9723;DHT22;4900;49.306;8.500;2023-04-03T14:51:22;20.64;31.14
9723;DHT22;4900;49.306;8.500;2023-04-03T14:53:48;21.20;31.00
9723;DHT22;4900;49.306;8.500;2023-04-03T14:56:23;21.93;30.59
9723;DHT22;4900;49.306;8.500;2023-04-03T14:58:55;22.67;29.55
9723;DHT22;4900;49.306;8.500;2023-04-03T15:01:21;23.10;28.27
9723;DHT22;4900;49.306;8.500;2023-04-03T15:03:46;23.58;27.94
9723;DHT22;4900;49.306;8.500;2023-04-03T15:06:12;23.65;26.40
9723;DHT22;4900;49.306;8.500;2023-04-03T15:08:38;23.38;26.99
9723;DHT22;4900;49.306;8.500;2023-04-03T15:11:06;23.12;25.55
9723;DHT22;4900;49.306;8.500;2023-04-03T15:13:32;22.82;26.20
9723;DHT22;4900;49.306;8.500;2023-04-03T15:15:57;22.55;25.68
9723;DHT22;4900;49.306;8.500;2023-04-03T15:18:25;22.17;26.66
9723;DHT22;4900;49.306;8.500;2023-04-03T15:20:54;22.27;26.67
9723;DHT22;4900;49.306;8.500;2023-04-03T15:23:21;22.50;27.68
9723;DHT22;4900;49.306;8.500;2023-04-03T15:25:51;22.95;28.02
9723;DHT22;4900;49.306;8.500;2023-04-03T15:28:37;23.62;28.27
9723;DHT22;4900;49.306;8.500;2023-04-03T15:31:03;24.16;26.84
9723;DHT22;4900;49.306;8.500;2023-04-03T15:33:30;24.39;26.37
9723;DHT22;4900;49.306;8.500;2023-04-03T15:35:56;24.28;24.99
9723;DHT22;4900;49.306;8.500;2023-04-03T15:38:21;23.93;25.10
9723;DHT22;4900;49.306;8.500;2023-04-03T15:40:47;23.26;25.40
9723;DHT22;4900;49.306;8.500;2023-04-03T15:43:13;22.57;25.45
9723;DHT22;4900;49.306;8.500;2023-04-03T15:45:38;21.91;25.39
9723;DHT22;4900;49.306;8.500;2023-04-03T15:48:05;21.21;26.19
9723;DHT22;4900;49.306;8.500;2023-04-03T15:50:31;20.75;26.39
9723;DHT22;4900;49.306;8.500;2023-04-03T15:52:57;20.40;27.25
9723;DHT22;4900;49.306;8.500;2023-04-03T15:55:31;19.95;27.35
9723;DHT22;4900;49.306;8.500;2023-04-03T15:57:58;19.48;27.55
9723;DHT22;4900;49.306;8.500;2023-04-03T16:00:24;19.27;28.17
9723;DHT22;4900;49.306;8.500;2023-04-03T16:02:56;19.14;28.37
9723;DHT22;4900;49.306;8.500;2023-04-03T16:05:23;19.02;28.84
9723;DHT22;4900;49.306;8.500;2023-04-03T16:07:49;18.81;29.39
9723;DHT22;4900;49.306;8.500;2023-04-03T16:10:16;18.54;29.62
9723;DHT22;4900;49.306;8.500;2023-04-03T16:12:43;18.12;30.22
9723;DHT22;4900;49.306;8.500;2023-04-03T16:15:09;17.58;30.39
9723;DHT22;4900;49.306;8.500;2023-04-03T16:17:36;17.26;30.30
9723;DHT22;4900;49.306;8.500;2023-04-03T16:20:03;17.13;30.52
9723;DHT22;4900;49.306;8.500;2023-04-03T16:22:29;16.99;30.09
9723;DHT22;4900;49.306;8.500;2023-04-03T16:24:56;16.89;29.96
9723;DHT22;4900;49.306;8.500;2023-04-03T16:27:22;16.81;30.30
9723;DHT22;4900;49.306;8.500;2023-04-03T16:29:51;16.67;30.67
9723;DHT22;4900;49.306;8.500;2023-04-03T16:32:16;16.53;30.85
9723;DHT22;4900;49.306;8.500;2023-04-03T16:34:41;16.30;30.78
9723;DHT22;4900;49.306;8.500;2023-04-03T16:37:07;16.04;30.68
9723;DHT22;4900;49.306;8.500;2023-04-03T16:39:35;15.70;31.37
9723;DHT22;4900;49.306;8.500;2023-04-03T16:42:01;15.36;31.57
9723;DHT22;4900;49.306;8.500;2023-04-03T16:44:26;15.06;32.35
9723;DHT22;4900;49.306;8.500;2023-04-03T16:46:52;14.85;32.66
9723;DHT22;4900;49.306;8.500;2023-04-03T16:49:17;14.61;33.16
9723;DHT22;4900;49.306;8.500;2023-04-03T16:51:43;14.36;32.94
9723;DHT22;4900;49.306;8.500;2023-04-03T16:54:08;14.19;33.45
9723;DHT22;4900;49.306;8.500;2023-04-03T16:56:36;14.02;33.70
9723;DHT22;4900;49.306;8.500;2023-04-03T16:59:01;13.94;34.22
9723;DHT22;4900;49.306;8.500;2023-04-03T17:01:27;13.77;34.46
9723;DHT22;4900;49.306;8.500;2023-04-03T17:03:52;13.64;34.27
9723;DHT22;4900;49.306;8.500;2023-04-03T17:06:20;13.57;34.63
9723;DHT22;4900;49.306;8.500;2023-04-03T17:08:47;13.49;34.94
9723;DHT22;4900;49.306;8.500;2023-04-03T17:11:14;13.35;35.09
9723;DHT22;4900;49.306;8.500;2023-04-03T17:13:39;13.18;34.42
9723;DHT22;4900;49.306;8.500;2023-04-03T17:16:08;13.14;34.42
9723;DHT22;4900;49.306;8.500;2023-04-03T17:18:34;13.04;34.52
9723;DHT22;4900;49.306;8.500;2023-04-03T17:21:00;13.04;35.33
9723;DHT22;4900;49.306;8.500;2023-04-03T17:23:26;13.08;35.37
9723;DHT22;4900;49.306;8.500;2023-04-03T17:25:53;13.05;35.30
9723;DHT22;4900;49.306;8.500;2023-04-03T17:28:20;12.98;35.54
9723;DHT22;4900;49.306;8.500;2023-04-03T17:30:47;12.85;35.31
9723;DHT22;4900;49.306;8.500;2023-04-03T17:33:13;12.70;35.59
9723;DHT22;4900;49.306;8.500;2023-04-03T17:35:38;12.60;35.40
9723;DHT22;4900;49.306;8.500;2023-04-03T17:38:04;12.35;35.49
9723;DHT22;4900;49.306;8.500;2023-04-03T17:40:29;12.09;35.67
9723;DHT22;4900;49.306;8.500;2023-04-03T17:42:55;11.81;35.66
9723;DHT22;4900;49.306;8.500;2023-04-03T17:45:20;11.56;36.63
9723;DHT22;4900;49.306;8.500;2023-04-03T17:47:46;11.42;37.40
9723;DHT22;4900;49.306;8.500;2023-04-03T17:50:11;11.19;38.01
9723;DHT22;4900;49.306;8.500;2023-04-03T17:52:40;11.00;38.52